createdAt,value
2019-05-14T00:03:31.129Z,4.20
2019-05-14T00:07:37.335Z,4.20
2019-05-14T00:11:43.756Z,4.20
2019-05-14T00:15:51.944Z,4.20
2019-05-14T00:20:07.316Z,4.20
2019-05-14T00:24:05.166Z,4.20
2019-05-14T00:28:11.762Z,4.20
2019-05-14T00:32:17.829Z,4.20
2019-05-14T00:36:24.010Z,4.30
2019-05-14T00:40:31.450Z,4.40
2019-05-14T00:44:51.541Z,4.50
2019-05-14T00:48:45.823Z,4.50
2019-05-14T00:52:52.585Z,4.60
2019-05-14T00:56:58.618Z,4.70
2019-05-14T01:01:04.774Z,4.80
2019-05-14T01:05:12.373Z,4.80
2019-05-14T01:09:18.665Z,4.90
2019-05-14T01:13:26.319Z,5.00
2019-05-14T01:17:32.830Z,5.00
2019-05-14T01:21:41.598Z,5.10
2019-05-14T01:25:47.118Z,5.10
2019-05-14T01:29:53.085Z,5.20
2019-05-14T01:33:59.182Z,5.30
2019-05-14T01:38:06.802Z,5.40
2019-05-14T01:42:12.855Z,5.50
2019-05-14T01:46:21.021Z,5.50
2019-05-14T01:50:27.219Z,5.50
2019-05-14T01:54:33.167Z,5.50
2019-05-14T01:58:41.530Z,5.40
2019-05-14T02:02:47.383Z,5.20
2019-05-14T02:06:53.530Z,5.00
2019-05-14T02:11:01.540Z,4.80
2019-05-14T02:15:08.550Z,4.60
2019-05-14T02:19:14.520Z,4.40
2019-05-14T02:23:22.754Z,4.20
2019-05-14T02:27:28.495Z,4.10
2019-05-14T02:31:34.638Z,4.00
2019-05-14T02:35:41.735Z,3.90
2019-05-14T02:39:50.274Z,3.90
2019-05-14T02:43:59.153Z,3.90
2019-05-14T02:48:03.434Z,3.90
2019-05-14T02:52:10.226Z,3.80
2019-05-14T02:56:16.517Z,3.70
2019-05-14T03:00:22.652Z,3.50
2019-05-14T03:04:30.216Z,3.20
2019-05-14T03:08:38.940Z,3.10
2019-05-14T03:12:44.735Z,2.80
2019-05-14T03:16:50.775Z,2.80
2019-05-14T03:21:00.417Z,2.70
2019-05-14T03:25:06.005Z,2.80
2019-05-14T03:29:12.149Z,2.80
2019-05-14T03:33:21.937Z,2.80
2019-05-14T03:37:30.622Z,2.80
2019-05-14T03:41:33.498Z,2.80
2019-05-14T03:45:40.704Z,2.80
2019-05-14T03:49:49.818Z,2.90
2019-05-14T03:54:03.641Z,3.00
2019-05-14T03:58:05.161Z,3.40
2019-05-14T04:02:11.504Z,5.30
2019-05-14T04:06:19.128Z,7.90
2019-05-14T04:10:25.930Z,10.10
2019-05-14T04:14:34.358Z,12.00
2019-05-14T04:18:44.133Z,13.30
2019-05-14T04:23:02.919Z,14.50
2019-05-14T04:27:30.144Z,15.90
2019-05-14T04:31:38.996Z,17.50
2019-05-14T04:35:59.615Z,18.90
2019-05-14T04:40:22.747Z,19.20
2019-05-14T04:44:50.255Z,20.40
2019-05-14T04:49:14.329Z,21.70
2019-05-14T04:53:39.783Z,22.80
2019-05-14T04:58:04.139Z,23.70
2019-05-14T05:02:12.036Z,24.70
2019-05-14T05:06:39.376Z,25.60
2019-05-14T05:11:02.522Z,26.30
2019-05-14T05:15:10.210Z,27.00
2019-05-14T05:19:19.435Z,27.10
2019-05-14T05:23:24.377Z,28.00
2019-05-14T05:27:49.062Z,27.80
2019-05-14T05:32:14.079Z,27.70
2019-05-14T05:36:39.143Z,27.70
2019-05-14T05:41:04.559Z,28.20
2019-05-14T05:45:29.919Z,28.10
2019-05-14T05:49:41.038Z,28.90
2019-05-14T05:53:48.314Z,26.20
2019-05-14T05:57:54.857Z,24.60
2019-05-14T06:02:01.521Z,26.20
2019-05-14T06:06:28.355Z,27.90
2019-05-14T06:10:52.686Z,27.70
2019-05-14T06:15:19.110Z,28.20
2019-05-14T06:19:24.682Z,28.10
2019-05-14T06:23:30.911Z,27.30
2019-05-14T06:27:40.985Z,27.40
2019-05-14T06:31:49.375Z,28.60
2019-05-14T06:35:55.468Z,30.00
2019-05-14T06:40:01.729Z,28.80
2019-05-14T06:44:09.187Z,30.10
2019-05-14T06:48:30.092Z,26.50
2019-05-14T06:52:25.301Z,27.30
2019-05-14T06:56:31.567Z,29.00
2019-05-14T07:00:39.658Z,30.80
2019-05-14T07:04:48.212Z,32.00
2019-05-14T07:08:54.442Z,31.90
2019-05-14T07:13:00.685Z,32.00
2019-05-14T07:17:09.072Z,26.30
2019-05-14T07:21:18.450Z,20.80
2019-05-14T07:25:24.071Z,20.80
2019-05-14T07:29:30.313Z,18.10
2019-05-14T07:33:38.783Z,15.60
2019-05-14T07:37:45.360Z,15.50
2019-05-14T07:41:51.610Z,18.20
2019-05-14T07:45:58.819Z,18.70
2019-05-14T07:50:08.851Z,22.00
2019-05-14T07:54:16.763Z,24.20
2019-05-14T07:58:23.148Z,27.50
2019-05-14T08:02:30.233Z,26.90
2019-05-14T08:06:54.754Z,24.20
2019-05-14T08:11:01.451Z,24.70
2019-05-14T08:15:18.330Z,26.20
2019-05-14T08:19:26.323Z,24.90
2019-05-14T08:23:28.224Z,21.60
2019-05-14T08:27:34.726Z,20.40
2019-05-14T08:31:41.050Z,21.30
2019-05-14T08:35:48.909Z,20.00
2019-05-14T08:39:55.787Z,17.80
2019-05-14T08:44:03.322Z,16.20
2019-05-14T08:48:09.632Z,15.90
2019-05-14T08:52:16.216Z,17.20
2019-05-14T08:56:23.327Z,14.60
2019-05-14T09:00:29.725Z,12.60
2019-05-14T09:04:36.008Z,12.10
2019-05-14T09:08:42.522Z,11.90
2019-05-14T09:12:49.245Z,12.10
2019-05-14T09:16:55.778Z,12.40
2019-05-14T09:21:02.004Z,11.80
2019-05-14T09:25:08.771Z,11.60
2019-05-14T09:29:25.025Z,10.80
2019-05-14T09:33:24.732Z,11.40
2019-05-14T09:37:31.721Z,15.70
2019-05-14T09:41:38.784Z,17.40
2019-05-14T09:45:59.424Z,16.90
2019-05-14T09:50:22.052Z,15.10
2019-05-14T09:54:23.756Z,14.00
2019-05-14T09:58:30.259Z,15.70
2019-05-14T10:02:39.252Z,15.90
2019-05-14T10:06:48.561Z,17.20
2019-05-14T10:10:54.835Z,14.00
2019-05-14T10:15:01.509Z,14.30
2019-05-14T10:19:08.274Z,16.70
2019-05-14T10:23:14.655Z,15.40
2019-05-14T10:27:20.878Z,13.60
2019-05-14T10:31:29.122Z,12.60
2019-05-14T10:35:35.833Z,12.00
2019-05-14T10:39:42.229Z,13.40
2019-05-14T10:43:49.712Z,15.00
2019-05-14T10:47:58.683Z,16.50
2019-05-14T10:52:19.762Z,19.10
2019-05-14T10:56:25.430Z,23.00
2019-05-14T11:00:32.010Z,20.50
2019-05-14T11:04:38.936Z,18.50
2019-05-14T11:08:45.403Z,20.30
2019-05-14T11:12:55.061Z,19.30
2019-05-14T11:17:19.795Z,16.90
2019-05-14T11:21:29.667Z,15.10
2019-05-14T11:25:34.331Z,14.60
2019-05-14T11:29:40.667Z,13.70
2019-05-14T11:33:49.415Z,13.60
2019-05-14T11:37:59.019Z,13.70
2019-05-14T11:42:05.458Z,13.30
2019-05-14T11:46:11.794Z,13.30
2019-05-14T11:50:19.116Z,14.60
2019-05-14T11:54:25.946Z,14.80
2019-05-14T11:58:32.692Z,14.80
2019-05-14T12:02:39.181Z,14.50
2019-05-14T12:07:04.846Z,14.00
2019-05-14T12:11:11.215Z,14.00
2019-05-14T12:15:18.787Z,13.20
2019-05-14T12:19:25.557Z,12.30
2019-05-14T12:23:49.834Z,11.60
2019-05-14T12:28:15.588Z,10.90
2019-05-14T12:32:23.626Z,10.30
2019-05-14T12:36:49.424Z,9.50
2019-05-14T12:41:14.439Z,9.20
2019-05-14T12:45:39.276Z,9.20
2019-05-14T12:49:48.340Z,10.10
2019-05-14T12:54:01.383Z,10.80
2019-05-14T12:58:08.263Z,11.50
2019-05-14T13:02:14.719Z,12.10
2019-05-14T13:06:21.392Z,13.10
2019-05-14T13:10:29.510Z,14.40
2019-05-14T13:14:36.049Z,10.80
2019-05-14T13:18:42.289Z,7.90
2019-05-14T13:22:50.263Z,7.00
2019-05-14T14:57:01.274Z,8.50
2019-05-14T15:01:08.853Z,8.30
2019-05-14T15:05:19.717Z,8.60
2019-05-14T15:09:24.843Z,9.00
2019-05-14T15:13:31.090Z,9.40
2019-05-14T15:17:39.243Z,9.90
2019-05-14T15:21:45.227Z,10.00
2019-05-14T15:25:51.595Z,10.00
2019-05-14T15:29:59.488Z,10.30
2019-05-14T15:34:08.721Z,10.40
2019-05-14T15:38:13.970Z,10.40
2019-05-14T15:42:20.278Z,10.40
2019-05-14T15:46:26.518Z,10.20
2019-05-14T15:50:33.040Z,9.90
2019-05-14T15:54:46.651Z,9.70
2019-05-14T15:58:48.197Z,9.60
2019-05-14T16:02:54.430Z,9.60
2019-05-14T16:07:00.735Z,9.70
2019-05-14T16:11:10.972Z,9.80
2019-05-14T16:15:15.261Z,10.10
2019-05-14T16:19:21.639Z,10.60
2019-05-14T16:23:28.286Z,10.70
2019-05-14T16:27:34.554Z,10.70
2019-05-14T16:31:43.488Z,10.50
2019-05-14T16:35:48.855Z,10.70
2019-05-14T16:39:55.166Z,10.70
2019-05-14T16:44:01.822Z,10.60
2019-05-14T16:48:10.939Z,10.80
2019-05-14T16:52:17.945Z,11.10
2019-05-14T16:56:24.025Z,11.30
2019-05-14T17:00:30.429Z,11.20
2019-05-14T17:04:38.701Z,11.00
2019-05-14T17:08:44.671Z,10.70
2019-05-14T17:12:56.876Z,10.30
2019-05-14T17:16:59.551Z,10.30
2019-05-14T17:21:08.940Z,10.20
2019-05-14T17:25:31.920Z,10.00
2019-05-14T17:29:38.931Z,9.80
2019-05-14T17:33:45.456Z,9.70
2019-05-14T17:37:52.670Z,9.60
2019-05-14T17:41:59.088Z,9.50
2019-05-14T17:46:05.409Z,9.50
2019-05-14T17:50:11.882Z,9.40
2019-05-14T17:54:19.209Z,9.30
2019-05-14T17:58:25.521Z,9.20
2019-05-14T18:02:32.857Z,9.20
2019-05-14T18:06:39.080Z,9.10
2019-05-14T18:10:46.288Z,8.90
2019-05-14T18:14:54.274Z,8.80
2019-05-14T18:19:01.007Z,8.80
2019-05-14T18:23:11.498Z,8.60
2019-05-14T18:27:15.249Z,8.50
2019-05-14T18:31:21.559Z,8.30
2019-05-14T18:35:42.387Z,8.10
2019-05-14T18:39:44.027Z,8.00
2019-05-14T18:43:50.910Z,7.90
2019-05-14T18:47:59.144Z,7.80
2019-05-14T18:52:05.595Z,7.70
2019-05-14T18:56:20.213Z,7.60
2019-05-14T19:00:20.731Z,7.40
2019-05-14T19:04:27.953Z,7.30
2019-05-14T19:08:34.466Z,7.30
2019-05-14T19:12:41.933Z,7.20
2019-05-14T19:17:01.085Z,7.10
2019-05-14T19:21:08.989Z,7.00
2019-05-14T19:25:26.749Z,6.90
2019-05-14T19:29:33.561Z,6.80
2019-05-14T19:33:40.443Z,6.70
2019-05-14T19:38:04.359Z,6.60
2019-05-14T19:42:14.315Z,6.50
2019-05-14T19:46:20.762Z,6.40
2019-05-14T19:50:29.379Z,6.40
2019-05-14T19:54:38.241Z,6.30
2019-05-14T19:59:03.317Z,6.30
2019-05-14T20:03:30.134Z,6.20
2019-05-14T20:07:54.291Z,6.10
2019-05-14T20:12:09.689Z,6.00
2019-05-14T20:16:18.301Z,5.90
2019-05-14T20:20:28.623Z,5.90
2019-05-14T20:24:34.806Z,5.80
2019-05-14T20:28:41.202Z,5.80
2019-05-14T20:32:49.627Z,5.80
2019-05-14T20:37:13.325Z,5.80
2019-05-14T20:41:19.827Z,5.90
2019-05-14T20:45:28.898Z,5.90
2019-05-14T20:49:42.577Z,5.90
2019-05-14T20:54:01.147Z,5.80
2019-05-14T20:58:19.561Z,5.80
2019-05-14T21:02:24.322Z,5.70
2019-05-14T21:06:39.026Z,5.60
2019-05-14T21:10:45.422Z,5.50
2019-05-14T21:15:10.350Z,5.30
2019-05-14T21:19:34.807Z,5.20
2019-05-14T21:23:59.931Z,5.30
2019-05-14T21:28:09.359Z,5.20
2019-05-14T21:32:15.378Z,5.10
2019-05-14T21:36:30.273Z,5.10
2019-05-14T21:40:38.683Z,5.00
2019-05-14T21:45:02.230Z,4.90
2019-05-14T21:49:28.365Z,4.70
2019-05-14T21:53:35.194Z,4.60
2019-05-14T21:57:59.846Z,4.60
2019-05-14T22:02:07.156Z,4.60
2019-05-14T22:06:13.123Z,4.60
2019-05-14T22:10:39.915Z,4.50
2019-05-14T22:15:03.142Z,4.30
2019-05-14T22:19:28.707Z,4.20
2019-05-14T22:23:55.218Z,4.20
2019-05-14T22:28:19.249Z,4.00
2019-05-14T22:32:44.015Z,4.00
2019-05-14T22:37:09.101Z,3.80
2019-05-14T22:41:33.760Z,3.70
2019-05-14T22:45:59.046Z,3.60
2019-05-14T22:50:11.047Z,3.60
2019-05-14T22:54:17.725Z,3.50
2019-05-14T22:58:25.870Z,3.40
2019-05-14T23:02:38.159Z,3.40
2019-05-14T23:06:44.423Z,3.30
2019-05-14T23:10:50.566Z,3.20
2019-05-14T23:14:58.141Z,3.00
2019-05-14T23:19:07.954Z,2.90
2019-05-14T23:23:15.708Z,2.80
2019-05-14T23:27:23.073Z,2.70
2019-05-14T23:31:29.332Z,2.60
2019-05-14T23:35:41.131Z,2.50
2019-05-14T23:40:08.568Z,2.40
2019-05-14T23:44:32.627Z,2.40
2019-05-14T23:48:56.361Z,2.20
2019-05-14T23:53:20.968Z,2.20
2019-05-14T23:57:47.954Z,2.10
